sensor_id;sensor_type;location;lat;lon;timestamp;P1;durP1;ratioP1;P2;durP2;ratioP2
22904;SDS011;11619;50.140;8.518;2022-12-08T00:00:45;17.42;;;9.90;;
22904;SDS011;11619;50.140;8.518;2022-12-08T00:03:11;15.40;;;10.90;;
22904;SDS011;11619;50.140;8.518;2022-12-08T00:05:42;15.27;;;10.82;;
22904;SDS011;11619;50.140;8.518;2022-12-08T00:08:28;14.55;;;10.40;;
22904;SDS011;11619;50.140;8.518;2022-12-08T00:11:13;16.88;;;11.98;;
22904;SDS011;11619;50.140;8.518;2022-12-08T00:13:40;14.45;;;10.82;;
22904;SDS011;11619;50.140;8.518;2022-12-08T00:16:06;15.95;;;11.05;;
22904;SDS011;11619;50.140;8.518;2022-12-08T00:18:33;15.52;;;11.35;;
22904;SDS011;11619;50.140;8.518;2022-12-08T00:20:59;18.45;;;11.68;;
22904;SDS011;11619;50.140;8.518;2022-12-08T00:23:25;16.30;;;11.68;;
22904;SDS011;11619;50.140;8.518;2022-12-08T00:25:52;17.67;;;11.50;;
22904;SDS011;11619;50.140;8.518;2022-12-08T00:28:18;18.70;;;11.65;;
22904;SDS011;11619;50.140;8.518;2022-12-08T00:30:45;20.48;;;12.32;;
22904;SDS011;11619;50.140;8.518;2022-12-08T00:33:11;17.20;;;12.68;;
22904;SDS011;11619;50.140;8.518;2022-12-08T00:35:38;17.92;;;11.75;;
22904;SDS011;11619;50.140;8.518;2022-12-08T00:38:08;17.60;;;13.18;;
22904;SDS011;11619;50.140;8.518;2022-12-08T00:40:34;17.40;;;13.15;;
22904;SDS011;11619;50.140;8.518;2022-12-08T00:43:01;18.20;;;13.05;;
22904;SDS011;11619;50.140;8.518;2022-12-08T00:45:27;17.80;;;13.00;;
22904;SDS011;11619;50.140;8.518;2022-12-08T00:47:54;20.95;;;13.43;;
22904;SDS011;11619;50.140;8.518;2022-12-08T00:50:20;19.55;;;13.70;;
22904;SDS011;11619;50.140;8.518;2022-12-08T00:52:46;18.42;;;12.80;;
22904;SDS011;11619;50.140;8.518;2022-12-08T00:55:13;18.80;;;12.57;;
22904;SDS011;11619;50.140;8.518;2022-12-08T00:57:40;19.70;;;13.35;;
22904;SDS011;11619;50.140;8.518;2022-12-08T01:00:06;19.65;;;14.32;;
22904;SDS011;11619;50.140;8.518;2022-12-08T01:02:33;18.92;;;13.30;;
22904;SDS011;11619;50.140;8.518;2022-12-08T01:05:00;17.23;;;13.45;;
22904;SDS011;11619;50.140;8.518;2022-12-08T01:07:26;20.25;;;13.75;;
22904;SDS011;11619;50.140;8.518;2022-12-08T01:09:53;18.77;;;14.80;;
22904;SDS011;11619;50.140;8.518;2022-12-08T01:12:19;19.58;;;14.68;;
22904;SDS011;11619;50.140;8.518;2022-12-08T01:14:45;21.63;;;15.02;;
22904;SDS011;11619;50.140;8.518;2022-12-08T01:17:12;20.83;;;15.18;;
22904;SDS011;11619;50.140;8.518;2022-12-08T01:19:38;23.90;;;15.25;;
22904;SDS011;11619;50.140;8.518;2022-12-08T01:22:04;22.83;;;15.45;;
22904;SDS011;11619;50.140;8.518;2022-12-08T01:24:31;20.42;;;16.40;;
22904;SDS011;11619;50.140;8.518;2022-12-08T01:26:58;24.10;;;16.08;;
22904;SDS011;11619;50.140;8.518;2022-12-08T01:29:25;25.35;;;16.83;;
22904;SDS011;11619;50.140;8.518;2022-12-08T01:31:51;23.25;;;17.02;;
22904;SDS011;11619;50.140;8.518;2022-12-08T01:34:18;24.00;;;17.35;;
22904;SDS011;11619;50.140;8.518;2022-12-08T01:36:44;20.88;;;16.00;;
22904;SDS011;11619;50.140;8.518;2022-12-08T01:39:14;24.52;;;17.63;;
22904;SDS011;11619;50.140;8.518;2022-12-08T01:41:42;24.33;;;16.70;;
22904;SDS011;11619;50.140;8.518;2022-12-08T01:46:39;26.00;;;16.63;;
22904;SDS011;11619;50.140;8.518;2022-12-08T01:49:11;22.63;;;15.52;;
22904;SDS011;11619;50.140;8.518;2022-12-08T01:51:45;22.02;;;16.15;;
22904;SDS011;11619;50.140;8.518;2022-12-08T01:56:41;21.52;;;16.63;;
22904;SDS011;11619;50.140;8.518;2022-12-08T01:59:13;27.73;;;17.58;;
22904;SDS011;11619;50.140;8.518;2022-12-08T02:01:40;25.92;;;17.77;;
22904;SDS011;11619;50.140;8.518;2022-12-08T02:04:06;24.77;;;18.85;;
22904;SDS011;11619;50.140;8.518;2022-12-08T02:06:35;26.48;;;19.80;;
22904;SDS011;11619;50.140;8.518;2022-12-08T02:09:05;28.85;;;19.77;;
22904;SDS011;11619;50.140;8.518;2022-12-08T02:11:31;23.92;;;18.15;;
22904;SDS011;11619;50.140;8.518;2022-12-08T02:13:58;25.40;;;19.52;;
22904;SDS011;11619;50.140;8.518;2022-12-08T02:16:31;27.13;;;19.30;;
22904;SDS011;11619;50.140;8.518;2022-12-08T02:21:59;27.85;;;18.45;;
22904;SDS011;11619;50.140;8.518;2022-12-08T02:27:27;26.33;;;18.60;;
22904;SDS011;11619;50.140;8.518;2022-12-08T02:32:59;30.58;;;20.02;;
22904;SDS011;11619;50.140;8.518;2022-12-08T02:35:38;29.33;;;19.08;;
22904;SDS011;11619;50.140;8.518;2022-12-08T02:44:16;28.00;;;19.98;;
22904;SDS011;11619;50.140;8.518;2022-12-08T02:49:39;28.08;;;19.17;;
22904;SDS011;11619;50.140;8.518;2022-12-08T02:52:06;27.17;;;19.33;;
22904;SDS011;11619;50.140;8.518;2022-12-08T02:54:55;29.35;;;19.75;;
22904;SDS011;11619;50.140;8.518;2022-12-08T03:00:11;28.77;;;20.40;;
22904;SDS011;11619;50.140;8.518;2022-12-08T03:05:35;27.75;;;19.92;;
22904;SDS011;11619;50.140;8.518;2022-12-08T03:08:08;28.42;;;20.10;;
22904;SDS011;11619;50.140;8.518;2022-12-08T03:10:56;31.08;;;20.17;;
22904;SDS011;11619;50.140;8.518;2022-12-08T03:13:33;29.73;;;20.95;;
22904;SDS011;11619;50.140;8.518;2022-12-08T03:16:12;25.88;;;18.88;;
22904;SDS011;11619;50.140;8.518;2022-12-08T03:18:42;26.90;;;19.45;;
22904;SDS011;11619;50.140;8.518;2022-12-08T03:21:12;29.52;;;21.02;;
22904;SDS011;11619;50.140;8.518;2022-12-08T03:23:40;27.98;;;20.20;;
22904;SDS011;11619;50.140;8.518;2022-12-08T03:26:15;25.83;;;18.92;;
22904;SDS011;11619;50.140;8.518;2022-12-08T03:28:44;28.23;;;19.25;;
22904;SDS011;11619;50.140;8.518;2022-12-08T03:31:11;29.48;;;20.05;;
22904;SDS011;11619;50.140;8.518;2022-12-08T03:33:39;28.85;;;19.35;;
22904;SDS011;11619;50.140;8.518;2022-12-08T03:36:07;28.08;;;20.25;;
22904;SDS011;11619;50.140;8.518;2022-12-08T03:38:38;27.77;;;20.33;;
22904;SDS011;11619;50.140;8.518;2022-12-08T03:41:06;27.70;;;20.60;;
22904;SDS011;11619;50.140;8.518;2022-12-08T03:43:45;30.00;;;19.98;;
22904;SDS011;11619;50.140;8.518;2022-12-08T03:46:15;26.30;;;20.90;;
22904;SDS011;11619;50.140;8.518;2022-12-08T03:48:42;30.02;;;19.98;;
22904;SDS011;11619;50.140;8.518;2022-12-08T03:51:08;28.65;;;20.35;;
22904;SDS011;11619;50.140;8.518;2022-12-08T03:53:35;30.25;;;20.25;;
22904;SDS011;11619;50.140;8.518;2022-12-08T03:56:03;28.95;;;19.48;;
22904;SDS011;11619;50.140;8.518;2022-12-08T03:58:30;32.78;;;21.00;;
22904;SDS011;11619;50.140;8.518;2022-12-08T04:01:02;32.38;;;22.35;;
22904;SDS011;11619;50.140;8.518;2022-12-08T04:03:29;38.95;;;22.58;;
22904;SDS011;11619;50.140;8.518;2022-12-08T04:05:55;27.15;;;19.52;;
22904;SDS011;11619;50.140;8.518;2022-12-08T04:08:21;30.45;;;22.02;;
22904;SDS011;11619;50.140;8.518;2022-12-08T04:10:48;29.13;;;20.38;;
22904;SDS011;11619;50.140;8.518;2022-12-08T04:13:14;28.17;;;19.67;;
22904;SDS011;11619;50.140;8.518;2022-12-08T04:15:47;34.28;;;21.52;;
22904;SDS011;11619;50.140;8.518;2022-12-08T04:18:13;28.65;;;19.98;;
22904;SDS011;11619;50.140;8.518;2022-12-08T04:20:41;30.10;;;20.42;;
22904;SDS011;11619;50.140;8.518;2022-12-08T04:23:08;30.77;;;21.20;;
22904;SDS011;11619;50.140;8.518;2022-12-08T04:25:37;30.63;;;20.75;;
22904;SDS011;11619;50.140;8.518;2022-12-08T04:28:03;33.00;;;21.52;;
22904;SDS011;11619;50.140;8.518;2022-12-08T04:30:30;30.58;;;20.38;;
22904;SDS011;11619;50.140;8.518;2022-12-08T04:32:57;28.10;;;20.27;;
22904;SDS011;11619;50.140;8.518;2022-12-08T04:35:23;29.77;;;19.73;;
22904;SDS011;11619;50.140;8.518;2022-12-08T04:37:50;30.48;;;21.58;;
22904;SDS011;11619;50.140;8.518;2022-12-08T04:40:17;31.85;;;21.48;;
22904;SDS011;11619;50.140;8.518;2022-12-08T04:42:43;34.05;;;21.25;;
22904;SDS011;11619;50.140;8.518;2022-12-08T04:45:10;35.92;;;22.67;;
22904;SDS011;11619;50.140;8.518;2022-12-08T04:47:36;28.00;;;21.13;;
22904;SDS011;11619;50.140;8.518;2022-12-08T04:50:03;30.35;;;20.90;;
22904;SDS011;11619;50.140;8.518;2022-12-08T04:52:30;32.85;;;20.52;;
22904;SDS011;11619;50.140;8.518;2022-12-08T04:54:57;31.45;;;20.33;;
22904;SDS011;11619;50.140;8.518;2022-12-08T04:57:23;30.80;;;21.55;;
22904;SDS011;11619;50.140;8.518;2022-12-08T04:59:50;34.15;;;20.67;;
22904;SDS011;11619;50.140;8.518;2022-12-08T05:02:16;31.10;;;21.00;;
22904;SDS011;11619;50.140;8.518;2022-12-08T05:04:43;32.22;;;23.42;;
22904;SDS011;11619;50.140;8.518;2022-12-08T05:07:09;31.15;;;20.52;;
22904;SDS011;11619;50.140;8.518;2022-12-08T05:09:35;31.95;;;21.05;;
22904;SDS011;11619;50.140;8.518;2022-12-08T05:12:02;45.80;;;28.00;;
22904;SDS011;11619;50.140;8.518;2022-12-08T05:14:29;30.95;;;21.25;;
22904;SDS011;11619;50.140;8.518;2022-12-08T05:16:55;35.55;;;24.98;;
22904;SDS011;11619;50.140;8.518;2022-12-08T05:19:22;41.33;;;27.17;;
22904;SDS011;11619;50.140;8.518;2022-12-08T05:21:48;51.80;;;32.05;;
22904;SDS011;11619;50.140;8.518;2022-12-08T05:24:15;29.92;;;21.73;;
22904;SDS011;11619;50.140;8.518;2022-12-08T05:26:41;30.90;;;21.02;;
22904;SDS011;11619;50.140;8.518;2022-12-08T05:29:08;35.35;;;21.30;;
22904;SDS011;11619;50.140;8.518;2022-12-08T05:31:34;37.13;;;24.02;;
22904;SDS011;11619;50.140;8.518;2022-12-08T05:34:00;41.67;;;29.92;;
22904;SDS011;11619;50.140;8.518;2022-12-08T05:36:28;43.65;;;30.40;;
22904;SDS011;11619;50.140;8.518;2022-12-08T05:38:55;36.88;;;23.33;;
22904;SDS011;11619;50.140;8.518;2022-12-08T05:41:22;40.03;;;25.92;;
22904;SDS011;11619;50.140;8.518;2022-12-08T05:43:49;34.67;;;22.85;;
22904;SDS011;11619;50.140;8.518;2022-12-08T05:46:16;33.55;;;23.92;;
22904;SDS011;11619;50.140;8.518;2022-12-08T05:48:42;33.85;;;23.30;;
22904;SDS011;11619;50.140;8.518;2022-12-08T05:51:19;33.60;;;20.92;;
22904;SDS011;11619;50.140;8.518;2022-12-08T05:53:47;29.55;;;20.35;;
22904;SDS011;11619;50.140;8.518;2022-12-08T05:56:15;28.08;;;19.77;;
22904;SDS011;11619;50.140;8.518;2022-12-08T05:58:42;32.95;;;20.10;;
22904;SDS011;11619;50.140;8.518;2022-12-08T06:01:21;27.10;;;20.27;;
22904;SDS011;11619;50.140;8.518;2022-12-08T06:03:49;26.50;;;19.02;;
22904;SDS011;11619;50.140;8.518;2022-12-08T06:06:17;29.05;;;19.73;;
22904;SDS011;11619;50.140;8.518;2022-12-08T06:08:43;39.97;;;23.17;;
22904;SDS011;11619;50.140;8.518;2022-12-08T06:11:15;35.78;;;22.40;;
22904;SDS011;11619;50.140;8.518;2022-12-08T06:13:49;37.03;;;22.98;;
22904;SDS011;11619;50.140;8.518;2022-12-08T06:16:16;30.40;;;19.17;;
22904;SDS011;11619;50.140;8.518;2022-12-08T06:18:45;23.27;;;18.30;;
22904;SDS011;11619;50.140;8.518;2022-12-08T06:21:12;21.50;;;16.20;;
22904;SDS011;11619;50.140;8.518;2022-12-08T06:23:39;26.33;;;17.10;;
22904;SDS011;11619;50.140;8.518;2022-12-08T06:26:07;25.55;;;17.67;;
22904;SDS011;11619;50.140;8.518;2022-12-08T06:28:36;27.35;;;17.17;;
22904;SDS011;11619;50.140;8.518;2022-12-08T06:31:06;22.48;;;15.32;;
22904;SDS011;11619;50.140;8.518;2022-12-08T06:33:35;21.77;;;15.50;;
22904;SDS011;11619;50.140;8.518;2022-12-08T06:36:01;22.63;;;15.75;;
22904;SDS011;11619;50.140;8.518;2022-12-08T06:38:28;21.45;;;15.75;;
22904;SDS011;11619;50.140;8.518;2022-12-08T06:40:55;21.83;;;14.48;;
22904;SDS011;11619;50.140;8.518;2022-12-08T06:43:22;23.77;;;15.90;;
22904;SDS011;11619;50.140;8.518;2022-12-08T06:45:49;20.52;;;15.63;;
22904;SDS011;11619;50.140;8.518;2022-12-08T06:48:16;23.75;;;16.83;;
22904;SDS011;11619;50.140;8.518;2022-12-08T06:50:42;34.85;;;19.40;;
22904;SDS011;11619;50.140;8.518;2022-12-08T06:53:12;26.02;;;17.95;;
22904;SDS011;11619;50.140;8.518;2022-12-08T06:55:43;21.60;;;15.13;;
22904;SDS011;11619;50.140;8.518;2022-12-08T06:58:24;21.75;;;14.27;;
22904;SDS011;11619;50.140;8.518;2022-12-08T07:00:51;18.02;;;13.57;;
22904;SDS011;11619;50.140;8.518;2022-12-08T07:03:18;22.45;;;14.90;;
22904;SDS011;11619;50.140;8.518;2022-12-08T07:05:44;23.27;;;17.00;;
22904;SDS011;11619;50.140;8.518;2022-12-08T07:08:11;21.40;;;14.45;;
22904;SDS011;11619;50.140;8.518;2022-12-08T07:10:37;22.25;;;14.18;;
22904;SDS011;11619;50.140;8.518;2022-12-08T07:13:04;20.10;;;13.60;;
22904;SDS011;11619;50.140;8.518;2022-12-08T07:15:30;20.60;;;14.23;;
22904;SDS011;11619;50.140;8.518;2022-12-08T07:17:56;20.10;;;14.13;;
22904;SDS011;11619;50.140;8.518;2022-12-08T07:20:25;19.80;;;14.35;;
22904;SDS011;11619;50.140;8.518;2022-12-08T07:22:52;19.35;;;14.15;;
22904;SDS011;11619;50.140;8.518;2022-12-08T07:25:19;17.80;;;13.57;;
22904;SDS011;11619;50.140;8.518;2022-12-08T07:27:45;20.95;;;14.65;;
22904;SDS011;11619;50.140;8.518;2022-12-08T07:30:12;23.48;;;13.55;;
22904;SDS011;11619;50.140;8.518;2022-12-08T07:32:39;21.13;;;13.70;;
22904;SDS011;11619;50.140;8.518;2022-12-08T07:35:05;20.63;;;14.10;;
22904;SDS011;11619;50.140;8.518;2022-12-08T07:37:33;18.63;;;13.40;;
22904;SDS011;11619;50.140;8.518;2022-12-08T07:40:00;20.90;;;14.23;;
22904;SDS011;11619;50.140;8.518;2022-12-08T07:42:26;19.55;;;13.70;;
22904;SDS011;11619;50.140;8.518;2022-12-08T07:44:53;17.42;;;13.75;;
22904;SDS011;11619;50.140;8.518;2022-12-08T07:47:19;20.00;;;15.27;;
22904;SDS011;11619;50.140;8.518;2022-12-08T07:49:45;23.08;;;14.02;;
22904;SDS011;11619;50.140;8.518;2022-12-08T07:52:12;20.85;;;15.93;;
22904;SDS011;11619;50.140;8.518;2022-12-08T07:54:38;21.10;;;15.52;;
22904;SDS011;11619;50.140;8.518;2022-12-08T07:57:05;22.38;;;15.80;;
22904;SDS011;11619;50.140;8.518;2022-12-08T07:59:31;20.85;;;14.35;;
22904;SDS011;11619;50.140;8.518;2022-12-08T08:01:58;24.17;;;16.98;;
22904;SDS011;11619;50.140;8.518;2022-12-08T08:04:44;18.38;;;13.52;;
22904;SDS011;11619;50.140;8.518;2022-12-08T08:07:15;18.45;;;14.25;;
22904;SDS011;11619;50.140;8.518;2022-12-08T08:09:41;18.60;;;13.70;;
22904;SDS011;11619;50.140;8.518;2022-12-08T08:12:08;18.58;;;14.32;;
22904;SDS011;11619;50.140;8.518;2022-12-08T08:14:55;20.48;;;14.35;;
22904;SDS011;11619;50.140;8.518;2022-12-08T08:17:21;23.05;;;14.85;;
22904;SDS011;11619;50.140;8.518;2022-12-08T08:19:48;20.23;;;14.13;;
22904;SDS011;11619;50.140;8.518;2022-12-08T08:22:14;18.90;;;14.20;;
22904;SDS011;11619;50.140;8.518;2022-12-08T08:24:40;23.63;;;15.10;;
22904;SDS011;11619;50.140;8.518;2022-12-08T08:27:10;20.58;;;14.38;;
22904;SDS011;11619;50.140;8.518;2022-12-08T08:29:36;18.88;;;14.63;;
22904;SDS011;11619;50.140;8.518;2022-12-08T08:32:03;21.48;;;15.15;;
22904;SDS011;11619;50.140;8.518;2022-12-08T08:34:29;19.85;;;15.68;;
22904;SDS011;11619;50.140;8.518;2022-12-08T08:36:56;20.30;;;15.13;;
22904;SDS011;11619;50.140;8.518;2022-12-08T08:39:22;23.60;;;15.80;;
22904;SDS011;11619;50.140;8.518;2022-12-08T08:41:49;20.90;;;14.88;;
22904;SDS011;11619;50.140;8.518;2022-12-08T08:44:15;22.35;;;15.25;;
22904;SDS011;11619;50.140;8.518;2022-12-08T08:46:42;22.38;;;16.25;;
22904;SDS011;11619;50.140;8.518;2022-12-08T08:49:08;23.75;;;15.82;;
22904;SDS011;11619;50.140;8.518;2022-12-08T08:51:34;20.80;;;15.07;;
22904;SDS011;11619;50.140;8.518;2022-12-08T08:54:01;22.13;;;14.35;;
22904;SDS011;11619;50.140;8.518;2022-12-08T08:56:28;22.05;;;16.60;;
22904;SDS011;11619;50.140;8.518;2022-12-08T08:58:54;29.73;;;21.15;;
22904;SDS011;11619;50.140;8.518;2022-12-08T09:01:22;20.73;;;14.18;;
22904;SDS011;11619;50.140;8.518;2022-12-08T09:03:50;21.40;;;15.02;;
22904;SDS011;11619;50.140;8.518;2022-12-08T09:06:17;18.48;;;13.85;;
22904;SDS011;11619;50.140;8.518;2022-12-08T09:08:44;19.25;;;14.38;;
22904;SDS011;11619;50.140;8.518;2022-12-08T09:11:11;17.45;;;13.63;;
22904;SDS011;11619;50.140;8.518;2022-12-08T09:13:38;18.08;;;13.27;;
22904;SDS011;11619;50.140;8.518;2022-12-08T09:16:05;18.92;;;13.93;;
22904;SDS011;11619;50.140;8.518;2022-12-08T09:18:33;24.17;;;14.70;;
22904;SDS011;11619;50.140;8.518;2022-12-08T09:21:06;17.70;;;14.25;;
22904;SDS011;11619;50.140;8.518;2022-12-08T09:23:35;20.35;;;13.85;;
22904;SDS011;11619;50.140;8.518;2022-12-08T09:26:02;19.05;;;15.20;;
22904;SDS011;11619;50.140;8.518;2022-12-08T09:28:30;24.95;;;16.35;;
22904;SDS011;11619;50.140;8.518;2022-12-08T09:30:57;23.30;;;15.95;;
22904;SDS011;11619;50.140;8.518;2022-12-08T09:33:23;22.02;;;15.95;;
22904;SDS011;11619;50.140;8.518;2022-12-08T09:35:49;24.67;;;17.13;;
22904;SDS011;11619;50.140;8.518;2022-12-08T09:38:16;22.40;;;15.48;;
22904;SDS011;11619;50.140;8.518;2022-12-08T09:40:48;22.85;;;16.50;;
22904;SDS011;11619;50.140;8.518;2022-12-08T09:43:34;19.63;;;15.43;;
22904;SDS011;11619;50.140;8.518;2022-12-08T09:46:08;20.83;;;14.45;;
22904;SDS011;11619;50.140;8.518;2022-12-08T09:48:36;22.48;;;14.70;;
22904;SDS011;11619;50.140;8.518;2022-12-08T09:51:05;20.98;;;15.75;;
22904;SDS011;11619;50.140;8.518;2022-12-08T09:53:34;27.50;;;16.30;;
22904;SDS011;11619;50.140;8.518;2022-12-08T09:56:08;23.25;;;16.30;;
22904;SDS011;11619;50.140;8.518;2022-12-08T10:01:27;24.75;;;15.85;;
22904;SDS011;11619;50.140;8.518;2022-12-08T10:03:55;21.58;;;15.40;;
22904;SDS011;11619;50.140;8.518;2022-12-08T10:06:27;23.08;;;14.70;;
22904;SDS011;11619;50.140;8.518;2022-12-08T10:14:18;22.60;;;14.80;;
22904;SDS011;11619;50.140;8.518;2022-12-08T10:16:51;20.45;;;14.70;;
22904;SDS011;11619;50.140;8.518;2022-12-08T10:19:21;25.08;;;16.75;;
22904;SDS011;11619;50.140;8.518;2022-12-08T10:21:49;20.20;;;14.70;;
22904;SDS011;11619;50.140;8.518;2022-12-08T10:24:32;19.27;;;13.68;;
22904;SDS011;11619;50.140;8.518;2022-12-08T10:27:02;17.70;;;13.82;;
22904;SDS011;11619;50.140;8.518;2022-12-08T10:29:29;20.00;;;13.85;;
22904;SDS011;11619;50.140;8.518;2022-12-08T10:31:56;20.50;;;14.50;;
22904;SDS011;11619;50.140;8.518;2022-12-08T10:34:24;20.67;;;14.50;;
22904;SDS011;11619;50.140;8.518;2022-12-08T10:39:40;19.40;;;12.73;;
22904;SDS011;11619;50.140;8.518;2022-12-08T10:45:26;16.40;;;13.02;;
22904;SDS011;11619;50.140;8.518;2022-12-08T10:47:39;17.48;;;12.02;;
22904;SDS011;11619;50.140;8.518;2022-12-08T10:50:17;15.82;;;12.13;;
22904;SDS011;11619;50.140;8.518;2022-12-08T10:52:52;17.45;;;12.07;;
22904;SDS011;11619;50.140;8.518;2022-12-08T10:55:21;17.13;;;11.13;;
22904;SDS011;11619;50.140;8.518;2022-12-08T10:57:47;14.25;;;11.70;;
22904;SDS011;11619;50.140;8.518;2022-12-08T11:00:15;15.30;;;10.82;;
22904;SDS011;11619;50.140;8.518;2022-12-08T11:02:50;12.00;;;9.30;;
22904;SDS011;11619;50.140;8.518;2022-12-08T11:05:17;14.38;;;10.52;;
22904;SDS011;11619;50.140;8.518;2022-12-08T11:07:46;8.80;;;7.88;;
22904;SDS011;11619;50.140;8.518;2022-12-08T11:10:18;9.32;;;7.38;;
22904;SDS011;11619;50.140;8.518;2022-12-08T11:12:47;12.70;;;8.43;;
22904;SDS011;11619;50.140;8.518;2022-12-08T11:15:14;9.90;;;7.30;;
22904;SDS011;11619;50.140;8.518;2022-12-08T11:17:42;11.77;;;7.88;;
22904;SDS011;11619;50.140;8.518;2022-12-08T11:22:40;8.35;;;6.43;;
22904;SDS011;11619;50.140;8.518;2022-12-08T11:25:21;11.38;;;6.55;;
22904;SDS011;11619;50.140;8.518;2022-12-08T11:27:53;5.95;;;5.45;;
22904;SDS011;11619;50.140;8.518;2022-12-08T11:30:23;10.70;;;6.03;;
22904;SDS011;11619;50.140;8.518;2022-12-08T11:35:50;7.93;;;5.50;;
22904;SDS011;11619;50.140;8.518;2022-12-08T11:38:20;7.07;;;5.65;;
22904;SDS011;11619;50.140;8.518;2022-12-08T11:40:56;9.68;;;5.82;;
22904;SDS011;11619;50.140;8.518;2022-12-08T11:43:28;6.55;;;5.55;;
22904;SDS011;11619;50.140;8.518;2022-12-08T11:45:59;10.07;;;5.53;;
22904;SDS011;11619;50.140;8.518;2022-12-08T11:51:12;8.27;;;6.63;;
22904;SDS011;11619;50.140;8.518;2022-12-08T11:56:24;12.80;;;8.80;;
22904;SDS011;11619;50.140;8.518;2022-12-08T11:58:55;11.68;;;9.60;;
22904;SDS011;11619;50.140;8.518;2022-12-08T12:01:24;11.73;;;7.97;;
22904;SDS011;11619;50.140;8.518;2022-12-08T12:03:58;9.35;;;6.25;;
22904;SDS011;11619;50.140;8.518;2022-12-08T12:17:45;11.65;;;8.88;;
22904;SDS011;11619;50.140;8.518;2022-12-08T12:23:15;7.80;;;5.50;;
22904;SDS011;11619;50.140;8.518;2022-12-08T12:26:00;7.82;;;5.75;;
22904;SDS011;11619;50.140;8.518;2022-12-08T12:28:30;7.78;;;5.70;;
22904;SDS011;11619;50.140;8.518;2022-12-08T12:31:06;7.97;;;5.57;;
22904;SDS011;11619;50.140;8.518;2022-12-08T12:33:35;7.57;;;5.63;;
22904;SDS011;11619;50.140;8.518;2022-12-08T12:36:02;7.20;;;5.55;;
22904;SDS011;11619;50.140;8.518;2022-12-08T12:38:34;5.72;;;5.15;;
22904;SDS011;11619;50.140;8.518;2022-12-08T12:41:21;9.10;;;6.00;;
22904;SDS011;11619;50.140;8.518;2022-12-08T12:46:39;7.38;;;5.28;;
22904;SDS011;11619;50.140;8.518;2022-12-08T12:54:42;9.32;;;6.18;;
22904;SDS011;11619;50.140;8.518;2022-12-08T12:57:35;9.07;;;5.45;;
22904;SDS011;11619;50.140;8.518;2022-12-08T13:00:06;5.55;;;4.85;;
22904;SDS011;11619;50.140;8.518;2022-12-08T13:05:06;6.80;;;6.10;;
22904;SDS011;11619;50.140;8.518;2022-12-08T13:10:37;8.07;;;5.60;;
22904;SDS011;11619;50.140;8.518;2022-12-08T13:18:47;6.15;;;5.00;;
22904;SDS011;11619;50.140;8.518;2022-12-08T13:21:15;11.75;;;5.80;;
22904;SDS011;11619;50.140;8.518;2022-12-08T13:26:46;7.95;;;6.25;;
22904;SDS011;11619;50.140;8.518;2022-12-08T13:29:18;8.85;;;5.57;;
22904;SDS011;11619;50.140;8.518;2022-12-08T13:31:52;9.60;;;4.28;;
22904;SDS011;11619;50.140;8.518;2022-12-08T13:40:14;5.10;;;4.00;;
22904;SDS011;11619;50.140;8.518;2022-12-08T13:45:27;5.03;;;4.30;;
22904;SDS011;11619;50.140;8.518;2022-12-08T13:48:39;4.32;;;3.92;;
22904;SDS011;11619;50.140;8.518;2022-12-08T13:51:34;5.47;;;4.40;;
22904;SDS011;11619;50.140;8.518;2022-12-08T13:54:29;5.88;;;4.85;;
22904;SDS011;11619;50.140;8.518;2022-12-08T13:57:32;8.70;;;5.30;;
22904;SDS011;11619;50.140;8.518;2022-12-08T14:00:01;5.60;;;5.10;;
22904;SDS011;11619;50.140;8.518;2022-12-08T14:02:33;7.20;;;4.93;;
22904;SDS011;11619;50.140;8.518;2022-12-08T14:05:07;7.68;;;6.88;;
22904;SDS011;11619;50.140;8.518;2022-12-08T14:07:44;6.28;;;5.13;;
22904;SDS011;11619;50.140;8.518;2022-12-08T14:10:15;5.30;;;4.80;;
22904;SDS011;11619;50.140;8.518;2022-12-08T14:12:44;6.07;;;5.47;;
22904;SDS011;11619;50.140;8.518;2022-12-08T14:15:13;7.97;;;5.18;;
22904;SDS011;11619;50.140;8.518;2022-12-08T14:17:43;7.32;;;6.47;;
22904;SDS011;11619;50.140;8.518;2022-12-08T14:20:22;12.30;;;8.77;;
22904;SDS011;11619;50.140;8.518;2022-12-08T14:22:53;5.95;;;4.90;;
22904;SDS011;11619;50.140;8.518;2022-12-08T14:25:20;5.80;;;4.45;;
22904;SDS011;11619;50.140;8.518;2022-12-08T14:27:48;6.32;;;4.82;;
22904;SDS011;11619;50.140;8.518;2022-12-08T14:35:27;7.65;;;4.55;;
22904;SDS011;11619;50.140;8.518;2022-12-08T14:37:56;4.93;;;4.05;;
22904;SDS011;11619;50.140;8.518;2022-12-08T14:40:27;5.00;;;4.50;;
22904;SDS011;11619;50.140;8.518;2022-12-08T14:48:19;6.72;;;4.70;;
22904;SDS011;11619;50.140;8.518;2022-12-08T14:51:04;5.05;;;4.25;;
22904;SDS011;11619;50.140;8.518;2022-12-08T14:59:16;6.22;;;4.63;;
22904;SDS011;11619;50.140;8.518;2022-12-08T15:01:45;9.60;;;5.63;;
22904;SDS011;11619;50.140;8.518;2022-12-08T15:06:50;5.30;;;4.80;;
22904;SDS011;11619;50.140;8.518;2022-12-08T15:09:35;6.05;;;4.93;;
22904;SDS011;11619;50.140;8.518;2022-12-08T15:12:18;6.63;;;4.63;;
22904;SDS011;11619;50.140;8.518;2022-12-08T15:14:56;6.18;;;3.92;;
22904;SDS011;11619;50.140;8.518;2022-12-08T15:20:23;3.50;;;3.10;;
22904;SDS011;11619;50.140;8.518;2022-12-08T15:23:00;4.88;;;3.13;;
22904;SDS011;11619;50.140;8.518;2022-12-08T15:25:26;4.65;;;3.50;;
22904;SDS011;11619;50.140;8.518;2022-12-08T15:27:53;3.75;;;3.30;;
22904;SDS011;11619;50.140;8.518;2022-12-08T15:30:21;6.05;;;3.22;;
22904;SDS011;11619;50.140;8.518;2022-12-08T15:32:47;4.68;;;3.17;;
22904;SDS011;11619;50.140;8.518;2022-12-08T15:35:17;5.90;;;3.58;;
22904;SDS011;11619;50.140;8.518;2022-12-08T15:37:43;7.22;;;4.40;;
22904;SDS011;11619;50.140;8.518;2022-12-08T15:40:14;7.90;;;4.32;;
22904;SDS011;11619;50.140;8.518;2022-12-08T15:42:45;7.90;;;3.67;;
22904;SDS011;11619;50.140;8.518;2022-12-08T15:45:12;5.93;;;3.58;;
22904;SDS011;11619;50.140;8.518;2022-12-08T15:47:39;3.67;;;3.33;;
22904;SDS011;11619;50.140;8.518;2022-12-08T15:50:13;4.60;;;4.18;;
22904;SDS011;11619;50.140;8.518;2022-12-08T15:52:41;5.20;;;4.72;;
22904;SDS011;11619;50.140;8.518;2022-12-08T15:55:11;5.10;;;4.45;;
22904;SDS011;11619;50.140;8.518;2022-12-08T15:57:38;12.98;;;11.57;;
22904;SDS011;11619;50.140;8.518;2022-12-08T16:00:26;7.97;;;6.38;;
22904;SDS011;11619;50.140;8.518;2022-12-08T16:03:19;5.30;;;4.80;;
22904;SDS011;11619;50.140;8.518;2022-12-08T16:06:11;6.63;;;5.93;;
22904;SDS011;11619;50.140;8.518;2022-12-08T16:09:01;7.93;;;6.65;;
22904;SDS011;11619;50.140;8.518;2022-12-08T16:11:40;7.10;;;5.70;;
22904;SDS011;11619;50.140;8.518;2022-12-08T16:14:35;8.75;;;7.10;;
22904;SDS011;11619;50.140;8.518;2022-12-08T16:17:22;21.67;;;19.38;;
22904;SDS011;11619;50.140;8.518;2022-12-08T16:19:48;12.30;;;10.18;;
22904;SDS011;11619;50.140;8.518;2022-12-08T16:22:15;9.23;;;7.20;;
22904;SDS011;11619;50.140;8.518;2022-12-08T16:25:02;9.40;;;7.22;;
22904;SDS011;11619;50.140;8.518;2022-12-08T16:27:44;9.77;;;7.13;;
22904;SDS011;11619;50.140;8.518;2022-12-08T16:30:30;11.10;;;7.20;;
22904;SDS011;11619;50.140;8.518;2022-12-08T16:32:57;8.60;;;7.57;;
22904;SDS011;11619;50.140;8.518;2022-12-08T16:35:23;12.95;;;8.65;;
22904;SDS011;11619;50.140;8.518;2022-12-08T16:37:50;10.45;;;7.93;;
22904;SDS011;11619;50.140;8.518;2022-12-08T16:40:16;9.50;;;7.60;;
22904;SDS011;11619;50.140;8.518;2022-12-08T16:42:43;10.50;;;8.95;;
22904;SDS011;11619;50.140;8.518;2022-12-08T16:45:13;8.82;;;7.93;;